sensor_id;sensor_type;location;lat;lon;timestamp;pressure;altitude;pressure_sealevel;temperature;humidity
50702;BME280;36670;50.094;8.496;2023-06-14T00:01:51;99971.38;;;20.97;36.08
50702;BME280;36670;50.094;8.496;2023-06-14T00:04:17;99970.88;;;21.12;35.85
50702;BME280;36670;50.094;8.496;2023-06-14T00:06:43;99971.06;;;21.07;35.91
50702;BME280;36670;50.094;8.496;2023-06-14T00:09:10;99969.88;;;21.08;35.96
50702;BME280;36670;50.094;8.496;2023-06-14T00:11:37;99973.53;;;20.91;36.22
50702;BME280;36670;50.094;8.496;2023-06-14T00:14:03;99976.00;;;20.75;36.48
50702;BME280;36670;50.094;8.496;2023-06-14T00:16:28;99970.69;;;21.18;35.45
50702;BME280;36670;50.094;8.496;2023-06-14T00:18:54;99977.84;;;20.97;36.15
50702;BME280;36670;50.094;8.496;2023-06-14T00:21:19;99983.25;;;20.68;36.42
50702;BME280;36670;50.094;8.496;2023-06-14T00:23:45;99968.09;;;20.69;36.61
50702;BME280;36670;50.094;8.496;2023-06-14T00:26:10;99978.16;;;20.96;36.22
50702;BME280;36670;50.094;8.496;2023-06-14T00:28:36;99977.47;;;20.64;36.86
50702;BME280;36670;50.094;8.496;2023-06-14T00:31:01;99977.91;;;20.49;37.31
50702;BME280;36670;50.094;8.496;2023-06-14T00:33:26;99977.44;;;20.46;37.25
50702;BME280;36670;50.094;8.496;2023-06-14T00:35:52;99980.44;;;20.68;36.55
50702;BME280;36670;50.094;8.496;2023-06-14T00:38:19;99974.28;;;20.57;36.61
50702;BME280;36670;50.094;8.496;2023-06-14T00:40:44;99979.75;;;20.62;36.74
50702;BME280;36670;50.094;8.496;2023-06-14T00:43:10;99979.59;;;20.67;36.57
50702;BME280;36670;50.094;8.496;2023-06-14T00:45:35;99980.75;;;20.66;36.87
50702;BME280;36670;50.094;8.496;2023-06-14T00:48:01;99974.16;;;20.62;36.79
50702;BME280;36670;50.094;8.496;2023-06-14T00:50:28;99973.16;;;20.58;36.86
50702;BME280;36670;50.094;8.496;2023-06-14T00:52:55;99980.25;;;20.55;36.97
50702;BME280;36670;50.094;8.496;2023-06-14T00:55:20;99975.28;;;20.61;36.49
50702;BME280;36670;50.094;8.496;2023-06-14T00:57:45;99977.66;;;20.68;36.81
50702;BME280;36670;50.094;8.496;2023-06-14T01:00:11;99980.75;;;20.66;36.53
50702;BME280;36670;50.094;8.496;2023-06-14T01:02:38;99983.44;;;20.71;36.61
50702;BME280;36670;50.094;8.496;2023-06-14T01:05:04;99988.50;;;20.52;36.96
50702;BME280;36670;50.094;8.496;2023-06-14T01:15:36;99979.56;;;20.32;37.55
50702;BME280;36670;50.094;8.496;2023-06-14T01:18:02;99991.59;;;20.41;37.33
50702;BME280;36670;50.094;8.496;2023-06-14T01:20:32;99981.06;;;20.47;37.25
50702;BME280;36670;50.094;8.496;2023-06-14T01:22:58;99985.19;;;20.50;37.31
50702;BME280;36670;50.094;8.496;2023-06-14T01:25:24;99984.69;;;20.48;37.37
50702;BME280;36670;50.094;8.496;2023-06-14T01:27:53;99984.38;;;20.49;37.42
50702;BME280;36670;50.094;8.496;2023-06-14T01:30:20;99978.56;;;20.45;37.36
50702;BME280;36670;50.094;8.496;2023-06-14T01:32:47;99986.00;;;20.41;37.53
50702;BME280;36670;50.094;8.496;2023-06-14T01:35:13;99983.19;;;20.33;37.29
50702;BME280;36670;50.094;8.496;2023-06-14T01:37:39;99985.50;;;20.39;37.64
50702;BME280;36670;50.094;8.496;2023-06-14T01:40:06;99985.66;;;20.34;37.43
50702;BME280;36670;50.094;8.496;2023-06-14T01:42:35;99992.81;;;20.00;37.88
50702;BME280;36670;50.094;8.496;2023-06-14T01:45:02;99991.03;;;20.13;37.88
50702;BME280;36670;50.094;8.496;2023-06-14T01:47:27;99983.31;;;20.19;37.61
50702;BME280;36670;50.094;8.496;2023-06-14T01:49:53;99986.25;;;20.13;37.88
50702;BME280;36670;50.094;8.496;2023-06-14T01:52:18;99991.00;;;20.04;37.97
50702;BME280;36670;50.094;8.496;2023-06-14T01:54:44;99982.84;;;20.34;37.41
50702;BME280;36670;50.094;8.496;2023-06-14T01:57:11;99984.00;;;20.33;37.16
50702;BME280;36670;50.094;8.496;2023-06-14T01:59:36;99987.16;;;20.40;36.77
50702;BME280;36670;50.094;8.496;2023-06-14T02:02:03;99994.16;;;20.11;37.58
50702;BME280;36670;50.094;8.496;2023-06-14T02:04:28;99985.22;;;20.01;37.56
50702;BME280;36670;50.094;8.496;2023-06-14T02:06:53;99992.44;;;19.93;37.83
50702;BME280;36670;50.094;8.496;2023-06-14T02:09:19;99996.66;;;19.82;37.91
50702;BME280;36670;50.094;8.496;2023-06-14T02:11:44;99998.88;;;19.93;37.99
50702;BME280;36670;50.094;8.496;2023-06-14T02:14:10;99996.34;;;19.83;38.03
50702;BME280;36670;50.094;8.496;2023-06-14T02:16:37;99988.31;;;19.90;38.42
50702;BME280;36670;50.094;8.496;2023-06-14T02:19:04;99983.88;;;19.98;38.25
50702;BME280;36670;50.094;8.496;2023-06-14T02:21:29;99995.09;;;19.98;37.98
50702;BME280;36670;50.094;8.496;2023-06-14T02:23:54;99997.25;;;20.01;38.28
50702;BME280;36670;50.094;8.496;2023-06-14T02:26:20;100001.00;;;19.88;38.29
50702;BME280;36670;50.094;8.496;2023-06-14T02:28:45;100009.53;;;19.83;37.96
50702;BME280;36670;50.094;8.496;2023-06-14T02:31:10;99990.50;;;20.02;37.94
50702;BME280;36670;50.094;8.496;2023-06-14T02:33:36;100011.06;;;19.89;38.09
50702;BME280;36670;50.094;8.496;2023-06-14T02:36:02;100005.13;;;19.68;38.87
50702;BME280;36670;50.094;8.496;2023-06-14T02:38:28;100008.53;;;19.56;38.97
50702;BME280;36670;50.094;8.496;2023-06-14T02:40:53;100017.06;;;19.51;39.04
50702;BME280;36670;50.094;8.496;2023-06-14T02:43:18;100017.06;;;19.51;39.10
50702;BME280;36670;50.094;8.496;2023-06-14T02:45:44;100007.53;;;19.52;38.39
50702;BME280;36670;50.094;8.496;2023-06-14T02:48:10;100001.41;;;19.50;38.76
50702;BME280;36670;50.094;8.496;2023-06-14T02:50:36;100002.63;;;19.57;38.96
50702;BME280;36670;50.094;8.496;2023-06-14T02:53:01;99999.53;;;19.68;38.67
50702;BME280;36670;50.094;8.496;2023-06-14T02:55:28;100006.47;;;19.70;38.13
50702;BME280;36670;50.094;8.496;2023-06-14T02:57:53;100001.94;;;19.83;37.98
50702;BME280;36670;50.094;8.496;2023-06-14T03:00:18;100005.47;;;19.89;38.25
50702;BME280;36670;50.094;8.496;2023-06-14T03:02:44;100006.72;;;19.83;38.36
50702;BME280;36670;50.094;8.496;2023-06-14T03:05:10;100009.31;;;19.79;37.92
50702;BME280;36670;50.094;8.496;2023-06-14T03:07:36;100008.19;;;19.80;38.27
50702;BME280;36670;50.094;8.496;2023-06-14T03:10:07;100013.09;;;20.06;37.60
50702;BME280;36670;50.094;8.496;2023-06-14T03:12:33;100011.94;;;20.07;37.97
50702;BME280;36670;50.094;8.496;2023-06-14T03:14:58;100017.72;;;20.10;37.96
50702;BME280;36670;50.094;8.496;2023-06-14T03:17:27;100012.44;;;20.09;37.59
50702;BME280;36670;50.094;8.496;2023-06-14T03:19:55;100027.22;;;20.32;37.15
50702;BME280;36670;50.094;8.496;2023-06-14T03:22:20;100014.81;;;20.33;37.16
50702;BME280;36670;50.094;8.496;2023-06-14T03:24:47;100016.97;;;20.27;37.71
50702;BME280;36670;50.094;8.496;2023-06-14T03:27:12;100019.72;;;20.10;37.32
50702;BME280;36670;50.094;8.496;2023-06-14T03:29:37;100025.09;;;20.38;37.64
50702;BME280;36670;50.094;8.496;2023-06-14T03:32:03;100025.78;;;20.03;37.81
50702;BME280;36670;50.094;8.496;2023-06-14T03:34:28;100023.16;;;20.07;38.42
50702;BME280;36670;50.094;8.496;2023-06-14T03:36:54;100035.19;;;20.07;38.11
50702;BME280;36670;50.094;8.496;2023-06-14T03:39:19;100040.00;;;20.16;38.04
50702;BME280;36670;50.094;8.496;2023-06-14T03:41:45;100034.31;;;20.38;37.72
50702;BME280;36670;50.094;8.496;2023-06-14T03:44:10;100031.91;;;20.54;37.57
50702;BME280;36670;50.094;8.496;2023-06-14T03:46:35;100035.38;;;20.60;37.76
50702;BME280;36670;50.094;8.496;2023-06-14T03:49:01;100032.59;;;20.77;37.24
50702;BME280;36670;50.094;8.496;2023-06-14T03:51:28;100040.00;;;20.64;37.17
50702;BME280;36670;50.094;8.496;2023-06-14T03:53:53;100045.50;;;21.22;37.02
50702;BME280;36670;50.094;8.496;2023-06-14T03:56:19;100049.63;;;21.69;36.64
50702;BME280;36670;50.094;8.496;2023-06-14T03:58:44;100050.75;;;22.24;35.80
50702;BME280;36670;50.094;8.496;2023-06-14T04:01:09;100058.25;;;22.11;35.76
50702;BME280;36670;50.094;8.496;2023-06-14T04:03:37;100054.41;;;22.84;35.29
50702;BME280;36670;50.094;8.496;2023-06-14T04:06:03;100054.09;;;23.61;34.09
50702;BME280;36670;50.094;8.496;2023-06-14T04:08:29;100064.44;;;23.91;33.33
50702;BME280;36670;50.094;8.496;2023-06-14T04:10:54;100063.56;;;24.48;32.26
50702;BME280;36670;50.094;8.496;2023-06-14T04:13:20;100067.00;;;24.66;32.15
50702;BME280;36670;50.094;8.496;2023-06-14T04:15:45;100065.03;;;25.08;32.19
50702;BME280;36670;50.094;8.496;2023-06-14T04:18:11;100069.56;;;24.84;31.06
50702;BME280;36670;50.094;8.496;2023-06-14T04:20:36;100069.09;;;24.45;31.15
50702;BME280;36670;50.094;8.496;2023-06-14T04:23:15;100071.09;;;24.69;31.55
50702;BME280;36670;50.094;8.496;2023-06-14T04:25:43;100076.00;;;25.94;31.04
50702;BME280;36670;50.094;8.496;2023-06-14T04:28:11;100069.56;;;26.57;29.55
50702;BME280;36670;50.094;8.496;2023-06-14T04:30:36;100075.31;;;26.61;30.01
50702;BME280;36670;50.094;8.496;2023-06-14T04:33:04;100070.09;;;27.34;29.73
50702;BME280;36670;50.094;8.496;2023-06-14T04:35:30;100077.22;;;27.64;28.92
50702;BME280;36670;50.094;8.496;2023-06-14T04:37:57;100068.13;;;27.97;28.27
50702;BME280;36670;50.094;8.496;2023-06-14T04:40:23;100069.03;;;28.48;27.26
50702;BME280;36670;50.094;8.496;2023-06-14T04:42:48;100078.38;;;28.71;27.68
50702;BME280;36670;50.094;8.496;2023-06-14T04:45:16;100069.13;;;28.05;27.49
50702;BME280;36670;50.094;8.496;2023-06-14T04:47:42;100068.84;;;28.14;27.48
50702;BME280;36670;50.094;8.496;2023-06-14T04:50:08;100073.00;;;28.93;26.59
50702;BME280;36670;50.094;8.496;2023-06-14T04:52:35;100077.88;;;28.19;27.07
50702;BME280;36670;50.094;8.496;2023-06-14T04:55:00;100069.00;;;27.58;27.58
50702;BME280;36670;50.094;8.496;2023-06-14T04:57:27;100077.00;;;27.96;26.85
50702;BME280;36670;50.094;8.496;2023-06-14T04:59:52;100082.03;;;27.83;26.83
50702;BME280;36670;50.094;8.496;2023-06-14T05:02:20;100088.44;;;27.21;28.21
50702;BME280;36670;50.094;8.496;2023-06-14T05:04:46;100084.53;;;27.09;28.07
50702;BME280;36670;50.094;8.496;2023-06-14T05:07:12;100088.22;;;25.82;29.82
50702;BME280;36670;50.094;8.496;2023-06-14T05:09:39;100093.97;;;25.17;30.32
50702;BME280;36670;50.094;8.496;2023-06-14T05:12:05;100096.00;;;25.57;29.36
50702;BME280;36670;50.094;8.496;2023-06-14T05:14:32;100086.13;;;25.79;30.29
50702;BME280;36670;50.094;8.496;2023-06-14T05:16:58;100083.25;;;25.35;30.32
50702;BME280;36670;50.094;8.496;2023-06-14T05:19:23;100092.34;;;26.01;29.30
50702;BME280;36670;50.094;8.496;2023-06-14T05:21:48;100089.59;;;25.88;29.83
50702;BME280;36670;50.094;8.496;2023-06-14T05:24:14;100101.38;;;25.90;29.40
50702;BME280;36670;50.094;8.496;2023-06-14T05:26:40;100103.41;;;24.59;30.65
50702;BME280;36670;50.094;8.496;2023-06-14T05:29:05;100111.09;;;24.96;30.32
50702;BME280;36670;50.094;8.496;2023-06-14T05:31:31;100102.84;;;25.03;31.23
50702;BME280;36670;50.094;8.496;2023-06-14T05:33:56;100104.28;;;24.84;31.57
50702;BME280;36670;50.094;8.496;2023-06-14T05:36:22;100100.66;;;25.37;30.69
50702;BME280;36670;50.094;8.496;2023-06-14T05:38:47;100102.44;;;26.14;29.83
50702;BME280;36670;50.094;8.496;2023-06-14T05:41:13;100106.06;;;25.70;30.18
50702;BME280;36670;50.094;8.496;2023-06-14T05:43:38;100113.53;;;25.63;30.48
50702;BME280;36670;50.094;8.496;2023-06-14T05:46:03;100109.72;;;25.71;30.54
50702;BME280;36670;50.094;8.496;2023-06-14T05:48:32;100107.84;;;26.35;30.09
50702;BME280;36670;50.094;8.496;2023-06-14T05:50:58;100117.06;;;25.88;30.42
50702;BME280;36670;50.094;8.496;2023-06-14T05:53:24;100117.88;;;26.17;30.06
50702;BME280;36670;50.094;8.496;2023-06-14T05:55:50;100117.69;;;25.53;30.22
50702;BME280;36670;50.094;8.496;2023-06-14T05:58:16;100130.59;;;25.01;31.24
50702;BME280;36670;50.094;8.496;2023-06-14T06:00:42;100123.94;;;25.46;31.24
50702;BME280;36670;50.094;8.496;2023-06-14T06:03:07;100117.97;;;25.35;32.08
50702;BME280;36670;50.094;8.496;2023-06-14T06:05:34;100134.69;;;25.69;31.81
50702;BME280;36670;50.094;8.496;2023-06-14T06:07:59;100147.25;;;25.84;31.32
50702;BME280;36670;50.094;8.496;2023-06-14T06:10:25;100141.34;;;25.48;31.89
50702;BME280;36670;50.094;8.496;2023-06-14T06:12:50;100146.31;;;25.51;31.36
50702;BME280;36670;50.094;8.496;2023-06-14T06:15:17;100140.41;;;26.13;30.24
50702;BME280;36670;50.094;8.496;2023-06-14T06:17:43;100151.22;;;26.23;30.35
50702;BME280;36670;50.094;8.496;2023-06-14T06:20:09;100153.19;;;26.07;30.32
50702;BME280;36670;50.094;8.496;2023-06-14T06:22:34;100161.91;;;25.08;31.88
50702;BME280;36670;50.094;8.496;2023-06-14T06:25:00;100158.84;;;25.01;31.73
50702;BME280;36670;50.094;8.496;2023-06-14T06:27:25;100174.72;;;24.68;32.55
50702;BME280;36670;50.094;8.496;2023-06-14T06:29:51;100176.16;;;22.72;35.71
50702;BME280;36670;50.094;8.496;2023-06-14T06:32:17;100185.00;;;22.53;36.65
50702;BME280;36670;50.094;8.496;2023-06-14T06:34:42;100181.44;;;22.17;37.18
50702;BME280;36670;50.094;8.496;2023-06-14T06:37:07;100172.53;;;21.89;37.68
50702;BME280;36670;50.094;8.496;2023-06-14T06:39:32;100181.28;;;22.05;37.41
50702;BME280;36670;50.094;8.496;2023-06-14T06:41:58;100179.63;;;22.13;38.06
50702;BME280;36670;50.094;8.496;2023-06-14T06:44:23;100185.97;;;22.66;37.30
50702;BME280;36670;50.094;8.496;2023-06-14T06:46:48;100174.00;;;22.22;37.84
50702;BME280;36670;50.094;8.496;2023-06-14T06:49:13;100185.16;;;22.57;37.54
50702;BME280;36670;50.094;8.496;2023-06-14T06:51:41;100198.16;;;23.17;36.60
50702;BME280;36670;50.094;8.496;2023-06-14T06:54:07;100193.38;;;22.71;36.90
50702;BME280;36670;50.094;8.496;2023-06-14T06:56:34;100201.13;;;22.00;38.02
50702;BME280;36670;50.094;8.496;2023-06-14T06:58:59;100210.91;;;21.76;37.76
50702;BME280;36670;50.094;8.496;2023-06-14T07:01:24;100207.13;;;21.55;39.39
50702;BME280;36670;50.094;8.496;2023-06-14T07:03:51;100207.75;;;22.04;38.43
50702;BME280;36670;50.094;8.496;2023-06-14T07:06:16;100183.78;;;22.07;38.05
50702;BME280;36670;50.094;8.496;2023-06-14T07:08:43;100209.25;;;21.67;39.28
50702;BME280;36670;50.094;8.496;2023-06-14T07:11:09;100199.50;;;21.64;39.16
50702;BME280;36670;50.094;8.496;2023-06-14T07:13:34;100206.47;;;21.84;39.12
50702;BME280;36670;50.094;8.496;2023-06-14T07:16:00;100203.22;;;22.29;38.45
50702;BME280;36670;50.094;8.496;2023-06-14T07:18:26;100209.88;;;22.07;38.56
50702;BME280;36670;50.094;8.496;2023-06-14T07:20:51;100209.41;;;22.05;38.75
50702;BME280;36670;50.094;8.496;2023-06-14T07:23:17;100206.09;;;21.94;38.86
50702;BME280;36670;50.094;8.496;2023-06-14T07:25:42;100208.91;;;22.03;39.28
50702;BME280;36670;50.094;8.496;2023-06-14T07:28:07;100210.19;;;21.44;40.07
50702;BME280;36670;50.094;8.496;2023-06-14T07:30:33;100208.22;;;22.15;39.61
50702;BME280;36670;50.094;8.496;2023-06-14T07:32:58;100205.91;;;22.82;38.77
50702;BME280;36670;50.094;8.496;2023-06-14T07:35:23;100203.63;;;22.75;38.17
50702;BME280;36670;50.094;8.496;2023-06-14T07:37:48;100203.22;;;22.94;38.65
50702;BME280;36670;50.094;8.496;2023-06-14T07:40:15;100202.97;;;22.78;38.84
50702;BME280;36670;50.094;8.496;2023-06-14T07:42:40;100212.00;;;22.93;38.60
50702;BME280;36670;50.094;8.496;2023-06-14T07:45:06;100211.06;;;22.71;38.41
50702;BME280;36670;50.094;8.496;2023-06-14T07:47:32;100204.91;;;22.30;38.73
50702;BME280;36670;50.094;8.496;2023-06-14T07:49:57;100214.50;;;22.38;39.37
50702;BME280;36670;50.094;8.496;2023-06-14T07:52:22;100211.91;;;22.72;38.68
50702;BME280;36670;50.094;8.496;2023-06-14T07:54:47;100213.13;;;22.53;38.47
50702;BME280;36670;50.094;8.496;2023-06-14T07:57:13;100190.56;;;22.71;38.56
50702;BME280;36670;50.094;8.496;2023-06-14T07:59:38;100203.38;;;22.89;38.02
50702;BME280;36670;50.094;8.496;2023-06-14T08:02:04;100210.03;;;22.84;38.08
50702;BME280;36670;50.094;8.496;2023-06-14T08:04:29;100209.53;;;22.82;38.03
50702;BME280;36670;50.094;8.496;2023-06-14T08:06:55;100219.72;;;22.57;38.56
50702;BME280;36670;50.094;8.496;2023-06-14T08:09:20;100209.88;;;22.90;37.91
50702;BME280;36670;50.094;8.496;2023-06-14T08:11:45;100224.19;;;23.06;37.81
50702;BME280;36670;50.094;8.496;2023-06-14T08:14:10;100217.53;;;23.19;38.29
50702;BME280;36670;50.094;8.496;2023-06-14T08:16:36;100217.34;;;23.15;37.32
50702;BME280;36670;50.094;8.496;2023-06-14T08:19:02;100206.53;;;22.88;37.43
50702;BME280;36670;50.094;8.496;2023-06-14T08:21:27;100219.59;;;22.54;38.09
50702;BME280;36670;50.094;8.496;2023-06-14T08:23:54;100208.47;;;22.66;37.41
50702;BME280;36670;50.094;8.496;2023-06-14T08:26:20;100215.28;;;22.47;37.60
50702;BME280;36670;50.094;8.496;2023-06-14T08:28:45;100209.88;;;22.42;38.14
50702;BME280;36670;50.094;8.496;2023-06-14T08:31:11;100207.63;;;22.65;37.58
50702;BME280;36670;50.094;8.496;2023-06-14T08:33:36;100206.84;;;22.95;37.01
50702;BME280;36670;50.094;8.496;2023-06-14T08:36:01;100206.25;;;23.19;37.04
50702;BME280;36670;50.094;8.496;2023-06-14T08:38:27;100219.38;;;23.06;37.68
50702;BME280;36670;50.094;8.496;2023-06-14T08:40:57;100204.25;;;23.20;36.94
50702;BME280;36670;50.094;8.496;2023-06-14T08:43:23;100210.16;;;23.27;36.13
50702;BME280;36670;50.094;8.496;2023-06-14T08:45:48;100218.72;;;23.00;36.29
50702;BME280;36670;50.094;8.496;2023-06-14T08:48:18;100212.50;;;22.86;36.40
50702;BME280;36670;50.094;8.496;2023-06-14T08:50:46;100207.59;;;23.13;36.62
50702;BME280;36670;50.094;8.496;2023-06-14T08:53:14;100216.34;;;23.20;35.93
50702;BME280;36670;50.094;8.496;2023-06-14T08:55:45;100208.59;;;23.38;35.62
50702;BME280;36670;50.094;8.496;2023-06-14T08:58:11;100217.22;;;23.12;35.31
50702;BME280;36670;50.094;8.496;2023-06-14T09:00:42;100206.09;;;23.15;34.39
50702;BME280;36670;50.094;8.496;2023-06-14T09:03:07;100217.53;;;23.40;34.15
50702;BME280;36670;50.094;8.496;2023-06-14T09:05:39;100199.97;;;23.64;34.79
50702;BME280;36670;50.094;8.496;2023-06-14T09:08:04;100210.22;;;23.69;33.24
50702;BME280;36670;50.094;8.496;2023-06-14T09:10:31;100218.28;;;23.28;33.09
50702;BME280;36670;50.094;8.496;2023-06-14T09:12:58;100210.06;;;23.44;34.19
50702;BME280;36670;50.094;8.496;2023-06-14T09:15:25;100209.09;;;23.40;34.24
50702;BME280;36670;50.094;8.496;2023-06-14T09:17:51;100214.94;;;22.96;35.92
50702;BME280;36670;50.094;8.496;2023-06-14T09:20:16;100220.28;;;23.28;35.03
50702;BME280;36670;50.094;8.496;2023-06-14T09:22:44;100203.22;;;23.24;34.15
50702;BME280;36670;50.094;8.496;2023-06-14T09:25:09;100212.72;;;23.62;34.59
50702;BME280;36670;50.094;8.496;2023-06-14T09:27:36;100210.53;;;23.46;34.78
50702;BME280;36670;50.094;8.496;2023-06-14T09:30:14;100216.44;;;23.32;34.89
50702;BME280;36670;50.094;8.496;2023-06-14T09:32:39;100236.84;;;23.50;35.54
50702;BME280;36670;50.094;8.496;2023-06-14T09:35:08;100223.19;;;23.61;34.19
50702;BME280;36670;50.094;8.496;2023-06-14T09:37:34;100221.59;;;23.73;34.49
50702;BME280;36670;50.094;8.496;2023-06-14T09:40:00;100233.66;;;23.82;34.48
50702;BME280;36670;50.094;8.496;2023-06-14T09:42:25;100227.94;;;23.69;34.36
50702;BME280;36670;50.094;8.496;2023-06-14T09:44:52;100246.63;;;23.53;34.63
50702;BME280;36670;50.094;8.496;2023-06-14T09:47:19;100246.63;;;23.53;34.52
50702;BME280;36670;50.094;8.496;2023-06-14T09:49:44;100240.91;;;23.62;33.55
50702;BME280;36670;50.094;8.496;2023-06-14T09:52:13;100235.16;;;23.79;34.23
50702;BME280;36670;50.094;8.496;2023-06-14T09:54:42;100237.06;;;24.30;32.78
50702;BME280;36670;50.094;8.496;2023-06-14T09:57:10;100235.78;;;24.61;33.38
50702;BME280;36670;50.094;8.496;2023-06-14T09:59:41;100236.53;;;24.15;33.31
50702;BME280;36670;50.094;8.496;2023-06-14T10:02:29;100226.00;;;24.25;33.28
50702;BME280;36670;50.094;8.496;2023-06-14T10:05:03;100232.16;;;24.39;32.97
50702;BME280;36670;50.094;8.496;2023-06-14T10:07:32;100234.06;;;24.47;32.95
50702;BME280;36670;50.094;8.496;2023-06-14T10:10:00;100233.66;;;24.36;33.32
50702;BME280;36670;50.094;8.496;2023-06-14T10:12:26;100221.59;;;24.48;33.88
50702;BME280;36670;50.094;8.496;2023-06-14T10:14:52;100235.91;;;24.77;32.97
50702;BME280;36670;50.094;8.496;2023-06-14T10:17:33;100214.31;;;24.47;32.73
50702;BME280;36670;50.094;8.496;2023-06-14T10:20:38;100218.75;;;24.94;32.84
50702;BME280;36670;50.094;8.496;2023-06-14T10:23:11;100218.16;;;25.01;33.03
50702;BME280;36670;50.094;8.496;2023-06-14T10:25:38;100216.00;;;24.73;32.82
50702;BME280;36670;50.094;8.496;2023-06-14T10:28:17;100215.31;;;23.97;33.98
50702;BME280;36670;50.094;8.496;2023-06-14T10:31:06;100228.19;;;23.34;34.18
50702;BME280;36670;50.094;8.496;2023-06-14T10:33:33;100217.09;;;23.59;34.31
50702;BME280;36670;50.094;8.496;2023-06-14T10:36:08;100222.38;;;24.03;34.01
50702;BME280;36670;50.094;8.496;2023-06-14T10:38:36;100215.81;;;24.45;33.74
50702;BME280;36670;50.094;8.496;2023-06-14T10:41:03;100216.91;;;24.52;33.62
50702;BME280;36670;50.094;8.496;2023-06-14T10:43:28;100222.75;;;24.81;33.05
50702;BME280;36670;50.094;8.496;2023-06-14T10:48:41;100223.81;;;24.76;32.43
50702;BME280;36670;50.094;8.496;2023-06-14T10:51:15;100211.56;;;24.72;33.18
50702;BME280;36670;50.094;8.496;2023-06-14T10:53:45;100211.91;;;24.83;33.23
50702;BME280;36670;50.094;8.496;2023-06-14T10:56:32;100208.72;;;24.97;32.56
50702;BME280;36670;50.094;8.496;2023-06-14T10:58:58;100216.50;;;25.37;32.23
50702;BME280;36670;50.094;8.496;2023-06-14T11:01:32;100212.00;;;25.48;32.22
50702;BME280;36670;50.094;8.496;2023-06-14T11:04:07;100217.34;;;25.90;31.59
50702;BME280;36670;50.094;8.496;2023-06-14T11:06:50;100221.03;;;25.66;32.16
50702;BME280;36670;50.094;8.496;2023-06-14T11:12:03;100223.44;;;25.27;32.05
50702;BME280;36670;50.094;8.496;2023-06-14T11:14:30;100220.19;;;25.78;31.16
50702;BME280;36670;50.094;8.496;2023-06-14T11:16:56;100201.47;;;26.58;31.42
50702;BME280;36670;50.094;8.496;2023-06-14T11:19:21;100211.75;;;26.51;30.04
50702;BME280;36670;50.094;8.496;2023-06-14T11:21:48;100215.06;;;25.96;30.98
50702;BME280;36670;50.094;8.496;2023-06-14T11:24:13;100219.63;;;25.72;31.38
50702;BME280;36670;50.094;8.496;2023-06-14T11:26:40;100221.09;;;25.17;32.64
50702;BME280;36670;50.094;8.496;2023-06-14T11:29:05;100214.38;;;25.21;32.07
50702;BME280;36670;50.094;8.496;2023-06-14T11:31:31;100208.72;;;25.09;32.38
50702;BME280;36670;50.094;8.496;2023-06-14T11:33:57;100214.88;;;25.89;31.89
50702;BME280;36670;50.094;8.496;2023-06-14T11:36:26;100224.00;;;26.11;31.44
50702;BME280;36670;50.094;8.496;2023-06-14T11:38:58;100198.16;;;25.84;31.97
50702;BME280;36670;50.094;8.496;2023-06-14T11:41:24;100214.50;;;26.03;31.64
50702;BME280;36670;50.094;8.496;2023-06-14T11:43:52;100203.84;;;26.00;30.96
50702;BME280;36670;50.094;8.496;2023-06-14T11:46:18;100213.94;;;25.85;31.20
50702;BME280;36670;50.094;8.496;2023-06-14T11:48:48;100204.25;;;25.86;32.01
50702;BME280;36670;50.094;8.496;2023-06-14T11:51:14;100213.59;;;25.33;32.44
50702;BME280;36670;50.094;8.496;2023-06-14T11:53:39;100211.09;;;25.32;32.01
50702;BME280;36670;50.094;8.496;2023-06-14T11:56:05;100201.78;;;25.44;31.93
50702;BME280;36670;50.094;8.496;2023-06-14T11:58:30;100206.94;;;25.95;32.16
50702;BME280;36670;50.094;8.496;2023-06-14T12:00:56;100209.47;;;26.12;30.80
50702;BME280;36670;50.094;8.496;2023-06-14T12:03:24;100202.25;;;25.86;30.66
50702;BME280;36670;50.094;8.496;2023-06-14T12:06:01;100209.56;;;25.87;31.25
50702;BME280;36670;50.094;8.496;2023-06-14T12:08:32;100211.13;;;26.13;31.09
50702;BME280;36670;50.094;8.496;2023-06-14T12:11:03;100210.88;;;26.18;30.76
50702;BME280;36670;50.094;8.496;2023-06-14T12:13:29;100209.28;;;26.05;31.01
50702;BME280;36670;50.094;8.496;2023-06-14T12:15:56;100201.16;;;26.03;30.45
50702;BME280;36670;50.094;8.496;2023-06-14T12:18:31;100213.91;;;25.97;29.97
50702;BME280;36670;50.094;8.496;2023-06-14T12:20:58;100209.50;;;26.00;31.08
50702;BME280;36670;50.094;8.496;2023-06-14T12:23:47;100213.66;;;25.62;30.96
50702;BME280;36670;50.094;8.496;2023-06-14T12:26:17;100209.91;;;25.45;32.20
50702;BME280;36670;50.094;8.496;2023-06-14T12:28:44;100204.00;;;26.03;31.50
50702;BME280;36670;50.094;8.496;2023-06-14T12:31:15;100206.41;;;25.77;30.64
50702;BME280;36670;50.094;8.496;2023-06-14T12:33:40;100212.84;;;25.49;31.79
50702;BME280;36670;50.094;8.496;2023-06-14T12:36:10;100196.38;;;25.92;31.00
50702;BME280;36670;50.094;8.496;2023-06-14T12:38:36;100203.38;;;26.10;30.23
50702;BME280;36670;50.094;8.496;2023-06-14T12:41:02;100193.81;;;26.75;29.43
50702;BME280;36670;50.094;8.496;2023-06-14T12:43:27;100207.25;;;26.34;29.17
50702;BME280;36670;50.094;8.496;2023-06-14T12:45:53;100200.75;;;26.17;29.33
50702;BME280;36670;50.094;8.496;2023-06-14T12:48:18;100199.75;;;26.26;29.71
50702;BME280;36670;50.094;8.496;2023-06-14T12:50:44;100205.88;;;26.88;29.47
50702;BME280;36670;50.094;8.496;2023-06-14T12:53:09;100200.91;;;27.01;28.29
50702;BME280;36670;50.094;8.496;2023-06-14T12:55:34;100203.22;;;26.19;29.45
50702;BME280;36670;50.094;8.496;2023-06-14T12:58:00;100209.13;;;26.14;28.59
50702;BME280;36670;50.094;8.496;2023-06-14T13:00:25;100211.91;;;25.85;29.53
50702;BME280;36670;50.094;8.496;2023-06-14T13:02:51;100214.06;;;25.76;29.78
50702;BME280;36670;50.094;8.496;2023-06-14T13:05:17;100208.31;;;26.01;29.36